Time;durP1;ratioP1;P1;durP2;ratioP2;P2;SDS_P1;SDS_P2;PMS_P1;PMS_P2;Temp;Humidity;BMP_temperature;BMP_pressure;BME280_temperature;BME280_humidity;BME280_pressure;Samples;Min_cycle;Max_cycle;Signal;HPM_P1;HPM_P2
2022/01/07 00:01:05;;;;;;;18.77;8.20;;;4.50;86.40;;;;;;5025371;28;20033;-72
2022/01/07 00:03:32;;;;;;;18.48;8.25;;;4.50;86.60;;;;;;5025482;28;20033;-73
2022/01/07 00:06:00;;;;;;;15.35;8.27;;;4.50;86.90;;;;;;5024650;28;20041;-74
2022/01/07 00:08:30;;;;;;;15.25;7.55;;;4.50;87.00;;;;;;5018085;28;20084;-73
2022/01/07 00:10:58;;;;;;;15.57;8.32;;;4.50;87.00;;;;;;5019884;28;20549;-74
2022/01/07 00:13:26;;;;;;;20.02;7.32;;;4.50;87.20;;;;;;5022005;28;20033;-77
2022/01/07 00:15:54;;;;;;;13.63;6.88;;;4.50;87.20;;;;;;5021010;28;20133;-74
2022/01/07 00:18:23;;;;;;;18.13;9.20;;;4.50;87.10;;;;;;5022434;28;20089;-77
2022/01/07 00:20:56;;;;;;;15.73;6.60;;;4.60;87.10;;;;;;5023467;28;20045;-73
2022/01/07 00:23:24;;;;;;;16.90;6.53;;;4.60;87.10;;;;;;5020348;28;20119;-78
2022/01/07 00:25:52;;;;;;;17.77;7.10;;;4.60;87.20;;;;;;5022184;28;20048;-73
2022/01/07 00:28:20;;;;;;;17.52;6.72;;;4.60;87.20;;;;;;5018526;28;20198;-84
2022/01/07 00:30:49;;;;;;;14.77;6.68;;;4.60;87.00;;;;;;5026355;28;20041;-75
2022/01/07 00:33:17;;;;;;;13.40;6.45;;;4.60;87.10;;;;;;5014570;28;20111;-80
2022/01/07 00:35:45;;;;;;;16.50;6.78;;;4.60;87.10;;;;;;5017547;28;20061;-76
2022/01/07 00:38:13;;;;;;;17.30;6.85;;;4.60;86.90;;;;;;5004787;28;20025;-85
2022/01/07 00:40:41;;;;;;;14.82;7.18;;;4.60;86.90;;;;;;5015266;28;20049;-80
2022/01/07 00:43:10;;;;;;;15.45;7.10;;;4.60;86.80;;;;;;5019612;28;20037;-77
2022/01/07 00:45:39;;;;;;;14.68;6.95;;;4.60;86.70;;;;;;5019094;28;20069;-76
2022/01/07 00:48:06;;;;;;;17.92;7.57;;;4.60;86.70;;;;;;5022902;28;20033;-75
2022/01/07 00:50:35;;;;;;;13.15;6.65;;;4.60;86.80;;;;;;5019800;28;20033;-77
2022/01/07 00:53:03;;;;;;;14.43;6.93;;;4.60;87.20;;;;;;5019783;28;20118;-86
2022/01/07 00:55:31;;;;;;;16.15;6.78;;;4.60;87.50;;;;;;5021538;28;20058;-76
2022/01/07 00:58:01;;;;;;;18.67;7.60;;;4.60;87.90;;;;;;5016746;28;20548;-76
2022/01/07 01:00:29;;;;;;;17.75;8.77;;;4.50;88.30;;;;;;5021831;28;20021;-73
2022/01/07 01:02:59;;;;;;;16.58;7.47;;;4.50;88.50;;;;;;5009330;28;20121;-75
2022/01/07 01:05:28;;;;;;;15.77;7.90;;;4.50;88.70;;;;;;5019280;28;20045;-79
2022/01/07 01:07:55;;;;;;;16.05;7.78;;;4.40;88.80;;;;;;5019306;28;20033;-79
2022/01/07 01:10:27;;;;;;;14.70;7.55;;;4.40;89.00;;;;;;5023375;28;21637;-75
2022/01/07 01:12:55;;;;;;;16.52;8.55;;;4.40;89.10;;;;;;5022353;28;20034;-79
2022/01/07 01:15:26;;;;;;;15.48;7.82;;;4.40;89.30;;;;;;5010604;28;20468;-78
2022/01/07 01:17:57;;;;;;;15.75;7.72;;;4.40;89.30;;;;;;5020131;28;20450;-79
2022/01/07 01:20:28;;;;;;;15.57;7.85;;;4.40;89.40;;;;;;5021996;28;20041;-76
2022/01/07 01:22:55;;;;;;;14.00;8.00;;;4.40;89.60;;;;;;5018343;28;20121;-81
2022/01/07 01:25:23;;;;;;;14.95;6.97;;;4.40;89.50;;;;;;5025203;28;21243;-73
2022/01/07 01:27:51;;;;;;;11.85;7.05;;;4.40;89.60;;;;;;5026652;28;20034;-77
2022/01/07 01:30:19;;;;;;;16.50;7.32;;;4.40;89.60;;;;;;5021685;28;20121;-81
2022/01/07 01:32:49;;;;;;;15.27;6.97;;;4.40;89.40;;;;;;5025590;28;20050;-75
2022/01/07 01:35:18;;;;;;;13.88;7.07;;;4.40;89.50;;;;;;5026681;28;20129;-74
2022/01/07 01:37:47;;;;;;;16.05;7.22;;;4.40;89.50;;;;;;5023892;28;20417;-79
2022/01/07 01:40:16;;;;;;;15.02;7.78;;;4.50;89.50;;;;;;5022265;28;20089;-73
2022/01/07 01:42:45;;;;;;;13.80;7.55;;;4.50;89.50;;;;;;5025032;28;20107;-73
2022/01/07 01:45:16;;;;;;;16.80;7.10;;;4.40;89.50;;;;;;5018670;28;20017;-77
2022/01/07 01:47:46;;;;;;;15.40;7.57;;;4.40;89.70;;;;;;5021381;28;20366;-76
2022/01/07 01:50:14;;;;;;;14.35;8.02;;;4.40;89.70;;;;;;5029398;28;20646;-73
2022/01/07 01:52:56;;;;;;;16.02;7.43;;;4.50;89.80;;;;;;5024104;28;20538;-74
2022/01/07 01:55:26;;;;;;;15.43;7.22;;;4.40;89.80;;;;;;5017639;28;20044;-84
2022/01/07 01:57:54;;;;;;;13.77;7.15;;;4.50;89.80;;;;;;5015877;28;20184;-77
2022/01/07 02:00:24;;;;;;;15.73;7.63;;;4.50;89.70;;;;;;5019033;28;20423;-80
2022/01/07 02:02:50;;;;;;;16.25;7.57;;;4.50;89.60;;;;;;5019796;28;20033;-78
2022/01/07 02:05:18;;;;;;;13.60;7.40;;;4.50;89.70;;;;;;5021747;28;20029;-73
2022/01/07 02:07:48;;;;;;;15.35;7.97;;;4.50;89.50;;;;;;5026246;28;20041;-73
2022/01/07 02:10:17;;;;;;;14.32;7.45;;;4.50;89.60;;;;;;5024299;28;20098;-75
2022/01/07 02:12:45;;;;;;;15.52;7.50;;;4.60;89.50;;;;;;5018628;28;20038;-78
2022/01/07 02:15:17;;;;;;;15.25;7.43;;;4.60;89.60;;;;;;5019086;28;20049;-84
2022/01/07 02:17:47;;;;;;;13.98;7.30;;;4.60;89.60;;;;;;5012856;28;20038;-75
2022/01/07 02:20:16;;;;;;;15.95;7.30;;;4.50;89.50;;;;;;5016413;28;20496;-75
2022/01/07 02:22:43;;;;;;;17.55;7.45;;;4.50;89.60;;;;;;5019121;28;20080;-76
2022/01/07 02:25:12;;;;;;;16.00;6.53;;;4.60;89.70;;;;;;5022941;28;20120;-82
2022/01/07 02:27:42;;;;;;;16.20;8.13;;;4.60;89.70;;;;;;5023477;28;20033;-77
2022/01/07 02:30:21;;;;;;;11.02;7.70;;;4.60;89.60;;;;;;5025000;28;20714;-75
2022/01/07 02:32:48;;;;;;;16.08;7.25;;;4.60;89.60;;;;;;5015126;28;20076;-75
2022/01/07 02:35:17;;;;;;;15.10;7.03;;;4.60;89.60;;;;;;5016622;28;20080;-77
2022/01/07 02:37:46;;;;;;;15.82;7.68;;;4.60;89.70;;;;;;5013088;28;20365;-77
2022/01/07 02:40:12;;;;;;;16.95;7.75;;;4.60;89.70;;;;;;5018742;28;20034;-76
2022/01/07 02:42:39;;;;;;;16.27;7.15;;;4.60;89.70;;;;;;5013454;28;20045;-80
2022/01/07 02:45:08;;;;;;;14.65;7.28;;;4.70;89.80;;;;;;5011149;28;20045;-85
2022/01/07 02:47:49;;;;;;;16.33;7.82;;;4.70;89.60;;;;;;5016916;28;20044;-74
2022/01/07 02:50:25;;;;;;;17.92;7.65;;;4.70;89.70;;;;;;5016753;28;20041;-75
2022/01/07 02:52:57;;;;;;;11.85;6.82;;;4.70;89.70;;;;;;5012604;28;20040;-78
2022/01/07 02:55:26;;;;;;;16.38;6.70;;;4.70;89.70;;;;;;5019302;28;20049;-80
2022/01/07 02:57:54;;;;;;;16.33;7.28;;;4.70;89.60;;;;;;5019365;28;20042;-75
2022/01/07 03:00:24;;;;;;;15.80;7.32;;;4.70;89.60;;;;;;5021708;28;20064;-75
2022/01/07 03:02:53;;;;;;;15.25;7.60;;;4.80;89.60;;;;;;5010602;28;20040;-81
2022/01/07 03:05:21;;;;;;;13.98;7.20;;;4.70;89.60;;;;;;5005943;28;20038;-75
2022/01/07 03:07:49;;;;;;;13.20;7.07;;;4.70;89.50;;;;;;5013219;28;20117;-74
2022/01/07 03:10:22;;;;;;;14.63;6.88;;;4.70;89.60;;;;;;5024088;28;20083;-75
2022/01/07 03:12:50;;;;;;;12.98;7.57;;;4.70;89.80;;;;;;5015690;28;20040;-82
2022/01/07 03:15:16;;;;;;;15.75;6.90;;;4.70;89.80;;;;;;5014847;28;20926;-78
2022/01/07 03:17:43;;;;;;;15.82;7.85;;;4.70;89.90;;;;;;5019125;28;20030;-78
2022/01/07 03:20:20;;;;;;;11.93;7.38;;;4.70;90.00;;;;;;5027937;28;20134;-74
2022/01/07 03:22:49;;;;;;;12.80;7.20;;;4.70;90.10;;;;;;5017341;28;20117;-80
2022/01/07 03:25:18;;;;;;;12.68;6.60;;;4.70;90.00;;;;;;5009908;28;20466;-77
2022/01/07 03:27:45;;;;;;;13.75;7.05;;;4.70;90.00;;;;;;5023172;28;20038;-89
2022/01/07 03:30:17;;;;;;;13.10;7.03;;;4.70;90.00;;;;;;5016915;28;20183;-74
2022/01/07 03:32:45;;;;;;;14.73;6.70;;;4.70;89.90;;;;;;5013306;28;20057;-74
2022/01/07 03:35:13;;;;;;;13.57;7.65;;;4.80;89.90;;;;;;5019201;28;20115;-74
2022/01/07 03:37:42;;;;;;;15.85;7.30;;;4.80;89.90;;;;;;5023767;28;20029;-77
2022/01/07 03:40:12;;;;;;;12.57;6.55;;;4.80;89.70;;;;;;5027129;28;20033;-77
2022/01/07 03:42:40;;;;;;;15.55;6.95;;;4.80;89.80;;;;;;5023386;28;20124;-82
2022/01/07 03:45:08;;;;;;;12.70;6.28;;;4.80;89.60;;;;;;5024869;28;20029;-75
2022/01/07 03:47:34;;;;;;;22.50;6.72;;;4.80;89.70;;;;;;5016611;28;20036;-77
2022/01/07 03:50:00;;;;;;;13.27;6.50;;;4.90;89.60;;;;;;5023993;28;20037;-81
2022/01/07 03:52:26;;;;;;;14.55;7.18;;;4.80;89.60;;;;;;5026050;28;20163;-83
2022/01/07 03:54:51;;;;;;;12.18;7.07;;;4.80;89.60;;;;;;5019716;28;20053;-81
2022/01/07 03:57:20;;;;;;;13.70;7.00;;;4.80;89.60;;;;;;5020110;28;20042;-77
2022/01/07 03:59:47;;;;;;;11.13;6.35;;;4.80;89.60;;;;;;5026945;28;20128;-77
2022/01/07 04:02:13;;;;;;;14.90;6.22;;;4.90;89.50;;;;;;5022356;28;20117;-74
2022/01/07 04:04:38;;;;;;;12.73;6.68;;;4.80;89.40;;;;;;5026740;28;20132;-76
2022/01/07 04:07:04;;;;;;;12.40;6.15;;;4.80;89.40;;;;;;5024903;28;20037;-77
2022/01/07 04:09:29;;;;;;;11.98;6.53;;;4.80;89.40;;;;;;5027260;28;20512;-75
2022/01/07 04:11:58;;;;;;;13.50;6.65;;;4.80;89.50;;;;;;5026634;28;20033;-86
2022/01/07 04:14:24;;;;;;;12.35;6.35;;;4.80;89.50;;;;;;5027031;28;20136;-76
2022/01/07 04:16:49;;;;;;;11.57;5.82;;;4.80;89.50;;;;;;5027633;28;20463;-78
2022/01/07 04:19:15;;;;;;;13.95;6.93;;;4.90;89.50;;;;;;5024557;28;20416;-77
2022/01/07 04:21:40;;;;;;;13.43;6.40;;;4.80;89.50;;;;;;5026103;28;20500;-76
2022/01/07 04:24:06;;;;;;;11.40;6.57;;;4.90;89.50;;;;;;5024766;28;20033;-80
2022/01/07 04:26:32;;;;;;;14.20;6.60;;;4.90;89.70;;;;;;5025192;28;20038;-77
2022/01/07 04:28:57;;;;;;;13.25;5.97;;;4.90;89.50;;;;;;5017471;28;20045;-82
2022/01/07 04:31:24;;;;;;;11.60;7.15;;;4.90;89.50;;;;;;5021412;28;20053;-79
2022/01/07 04:33:50;;;;;;;12.98;6.53;;;4.90;89.50;;;;;;5024705;28;20133;-74
2022/01/07 04:36:17;;;;;;;12.98;6.15;;;4.90;89.50;;;;;;5025936;28;20471;-78
2022/01/07 04:38:43;;;;;;;12.38;6.45;;;4.90;89.60;;;;;;5021752;28;20477;-79
2022/01/07 04:41:09;;;;;;;12.02;6.43;;;4.90;89.60;;;;;;5021270;28;20034;-80
2022/01/07 04:43:35;;;;;;;13.80;6.75;;;4.90;89.60;;;;;;5009798;28;20505;-74
2022/01/07 04:46:00;;;;;;;15.43;6.55;;;4.80;89.80;;;;;;5016011;28;20052;-74
2022/01/07 04:48:26;;;;;;;12.40;6.13;;;4.90;89.70;;;;;;5019227;28;20046;-82
2022/01/07 04:50:52;;;;;;;12.23;6.22;;;4.80;89.80;;;;;;5009526;28;20045;-74
2022/01/07 04:53:17;;;;;;;15.02;6.30;;;4.80;89.90;;;;;;5024311;28;20103;-76
2022/01/07 04:55:44;;;;;;;14.35;5.93;;;4.70;90.00;;;;;;5022372;28;20379;-82
2022/01/07 04:58:13;;;;;;;12.32;6.75;;;4.70;90.00;;;;;;5018546;28;20399;-81
2022/01/07 05:00:40;;;;;;;11.90;6.13;;;4.60;90.00;;;;;;5018561;28;20121;-73
2022/01/07 05:03:06;;;;;;;16.05;6.65;;;4.60;90.20;;;;;;5020420;28;20115;-78
2022/01/07 05:05:32;;;;;;;12.90;6.60;;;4.60;90.20;;;;;;5024236;28;20489;-79
2022/01/07 05:07:57;;;;;;;15.50;6.72;;;4.60;90.30;;;;;;5017065;28;20042;-76
2022/01/07 05:10:23;;;;;;;15.13;6.63;;;4.60;90.50;;;;;;5014638;28;20041;-74
2022/01/07 05:12:49;;;;;;;12.35;6.40;;;4.50;90.50;;;;;;5016593;28;20393;-81
2022/01/07 05:15:16;;;;;;;14.95;6.43;;;4.50;90.60;;;;;;5010361;28;20457;-75
2022/01/07 05:17:43;;;;;;;9.82;6.40;;;4.50;90.60;;;;;;5009361;28;20041;-79
2022/01/07 05:20:10;;;;;;;13.82;6.85;;;4.50;90.70;;;;;;5014692;28;20110;-75
2022/01/07 05:22:35;;;;;;;11.60;6.28;;;4.60;90.70;;;;;;5017584;28;20121;-75
2022/01/07 05:25:03;;;;;;;13.40;6.43;;;4.50;90.70;;;;;;5019232;28;20145;-81
2022/01/07 05:27:28;;;;;;;14.82;6.93;;;4.50;90.80;;;;;;5015702;28;20557;-75
2022/01/07 05:29:54;;;;;;;12.70;6.95;;;4.50;90.80;;;;;;5018302;28;20052;-78
2022/01/07 05:32:20;;;;;;;14.85;6.63;;;4.50;90.90;;;;;;5013384;28;20042;-86
2022/01/07 05:34:45;;;;;;;13.50;7.03;;;4.50;91.00;;;;;;5022250;28;20037;-74
2022/01/07 05:37:11;;;;;;;9.25;6.40;;;4.60;91.10;;;;;;5022907;28;20366;-77
2022/01/07 05:39:38;;;;;;;15.18;7.05;;;4.60;91.10;;;;;;5016357;28;20389;-80
2022/01/07 05:42:04;;;;;;;11.70;6.05;;;4.60;91.10;;;;;;5019484;28;20037;-78
2022/01/07 05:44:30;;;;;;;12.75;6.50;;;4.70;91.00;;;;;;5016300;28;20507;-74
2022/01/07 05:46:55;;;;;;;13.15;6.35;;;4.70;91.00;;;;;;5016432;28;20033;-79
2022/01/07 05:49:21;;;;;;;16.67;6.97;;;4.80;90.80;;;;;;5021794;28;20049;-80
2022/01/07 05:51:47;;;;;;;17.35;7.45;;;4.80;90.70;;;;;;5023404;28;20040;-77
2022/01/07 05:54:13;;;;;;;12.52;6.45;;;4.90;90.70;;;;;;5022744;28;20099;-75
2022/01/07 05:56:38;;;;;;;14.07;6.18;;;4.90;90.60;;;;;;5021960;28;20069;-74
2022/01/07 05:59:04;;;;;;;14.45;6.57;;;5.00;90.40;;;;;;5020981;28;20049;-74
2022/01/07 06:01:30;;;;;;;16.42;6.60;;;5.00;90.40;;;;;;5022173;28;20046;-83
2022/01/07 06:03:56;;;;;;;9.80;6.43;;;5.10;90.30;;;;;;5031984;28;20037;-76
2022/01/07 06:06:21;;;;;;;16.48;7.60;;;5.00;90.30;;;;;;5021216;28;20469;-75
2022/01/07 06:08:47;;;;;;;12.80;7.32;;;5.00;90.30;;;;;;5036136;28;20535;-80
2022/01/07 06:11:13;;;;;;;12.77;6.50;;;5.00;90.30;;;;;;5020147;28;20029;-77
2022/01/07 06:13:40;;;;;;;11.55;6.32;;;5.00;90.30;;;;;;5015748;28;20040;-79
2022/01/07 06:16:06;;;;;;;11.40;6.43;;;5.00;90.30;;;;;;5006455;28;20066;-86
2022/01/07 06:18:31;;;;;;;12.77;6.38;;;5.10;90.40;;;;;;5020649;28;20067;-75
2022/01/07 06:20:57;;;;;;;15.20;6.50;;;5.00;90.20;;;;;;5018528;28;20040;-82
2022/01/07 06:23:22;;;;;;;13.40;7.10;;;5.00;90.20;;;;;;5017714;28;20370;-75
2022/01/07 06:25:51;;;;;;;15.25;7.20;;;5.00;90.30;;;;;;5019489;28;20358;-81
2022/01/07 06:28:18;;;;;;;11.43;6.07;;;5.00;90.30;;;;;;5016325;28;20120;-74
2022/01/07 06:30:44;;;;;;;11.63;5.80;;;5.10;90.10;;;;;;5024222;28;20048;-75
2022/01/07 06:33:10;;;;;;;9.65;5.75;;;5.10;89.90;;;;;;5012527;28;20049;-77
2022/01/07 06:35:36;;;;;;;13.10;5.88;;;5.00;89.90;;;;;;5022237;28;20720;-78
2022/01/07 06:38:02;;;;;;;10.38;6.28;;;5.00;89.90;;;;;;5020696;28;20061;-77
2022/01/07 06:40:27;;;;;;;10.02;5.50;;;5.10;89.90;;;;;;5018746;28;20133;-75
2022/01/07 06:42:53;;;;;;;10.35;5.45;;;5.00;89.90;;;;;;5020040;28;20124;-75
2022/01/07 06:45:19;;;;;;;13.02;6.15;;;5.00;90.00;;;;;;5022258;28;20033;-78
2022/01/07 06:47:45;;;;;;;11.38;6.20;;;5.00;90.00;;;;;;5023765;28;20119;-74
2022/01/07 06:50:12;;;;;;;13.55;6.55;;;5.10;89.90;;;;;;5014370;28;20496;-84
2022/01/07 06:52:38;;;;;;;13.73;6.40;;;5.10;89.90;;;;;;5019204;28;20041;-76
2022/01/07 06:55:04;;;;;;;12.02;5.80;;;5.10;89.90;;;;;;5017487;28;20529;-76
2022/01/07 06:57:30;;;;;;;13.07;6.28;;;5.10;89.90;;;;;;5015358;28;20045;-79
2022/01/07 06:59:56;;;;;;;15.35;7.20;;;5.10;90.00;;;;;;5017554;28;20038;-81
2022/01/07 07:02:22;;;;;;;13.32;6.68;;;5.00;90.10;;;;;;5018880;28;20038;-81
2022/01/07 07:04:47;;;;;;;13.15;6.68;;;5.00;90.10;;;;;;5020063;28;20038;-79
2022/01/07 07:07:14;;;;;;;10.88;6.53;;;4.90;90.20;;;;;;5019756;28;20042;-77
2022/01/07 07:09:40;;;;;;;12.10;6.00;;;4.90;90.20;;;;;;5024384;28;20060;-78
2022/01/07 07:12:06;;;;;;;10.90;6.25;;;4.90;90.30;;;;;;5024693;28;20419;-78
2022/01/07 07:14:32;;;;;;;13.98;6.05;;;4.80;90.30;;;;;;5027246;28;20045;-79
2022/01/07 07:16:58;;;;;;;13.13;5.70;;;4.80;90.40;;;;;;5019783;28;20033;-78
2022/01/07 07:19:24;;;;;;;13.15;6.18;;;4.80;90.50;;;;;;5025418;28;20356;-78
2022/01/07 07:21:50;;;;;;;11.93;5.70;;;4.70;90.50;;;;;;5028406;28;20041;-74
2022/01/07 07:24:16;;;;;;;12.38;5.82;;;4.60;90.50;;;;;;5027985;28;20049;-76
2022/01/07 07:26:41;;;;;;;13.32;5.35;;;4.60;90.60;;;;;;5018134;28;20045;-74
2022/01/07 07:29:07;;;;;;;12.98;6.15;;;4.60;90.60;;;;;;5019274;28;20108;-75
2022/01/07 07:31:37;;;;;;;14.57;6.30;;;4.60;90.50;;;;;;5020205;28;20042;-74
2022/01/07 07:34:58;;;;;;;12.95;6.63;;;4.60;90.60;;;;;;5017108;28;20526;-77
2022/01/07 07:36:52;;;;;;;12.25;6.10;;;4.70;90.70;;;;;;5020184;28;20431;-79
2022/01/07 07:39:17;;;;;;;13.68;6.55;;;4.70;90.70;;;;;;5016554;28;20857;-75
2022/01/07 07:41:44;;;;;;;17.83;7.38;;;4.70;90.80;;;;;;5036956;28;20033;-82
2022/01/07 07:44:10;;;;;;;13.40;7.35;;;4.70;90.90;;;;;;5035798;28;20515;-76
2022/01/07 07:46:38;;;;;;;19.73;8.90;;;4.90;90.90;;;;;;5016632;28;20099;-73
2022/01/07 07:49:05;;;;;;;18.33;9.48;;;4.80;90.80;;;;;;5022706;28;20476;-80
2022/01/07 07:51:31;;;;;;;13.50;8.07;;;4.90;90.70;;;;;;5022572;28;20097;-83
2022/01/07 07:53:57;;;;;;;14.30;5.90;;;4.90;90.60;;;;;;5007565;28;20476;-77
2022/01/07 07:56:24;;;;;;;12.80;6.15;;;4.90;90.60;;;;;;5019529;28;20037;-76
2022/01/07 07:58:49;;;;;;;15.05;6.57;;;4.90;90.50;;;;;;5021487;28;20037;-76
2022/01/07 08:01:17;;;;;;;16.02;8.93;;;4.90;90.50;;;;;;5016979;28;20042;-87
2022/01/07 08:03:44;;;;;;;17.13;8.75;;;4.90;90.50;;;;;;5025219;28;20120;-77
2022/01/07 08:06:11;;;;;;;15.65;6.45;;;4.90;90.60;;;;;;5022572;28;20034;-81
2022/01/07 08:08:37;;;;;;;11.10;4.97;;;4.90;90.60;;;;;;5017691;28;20083;-76
2022/01/07 08:11:06;;;;;;;12.52;5.72;;;4.90;90.70;;;;;;5022713;28;20156;-78
2022/01/07 08:15:58;;;;;;;14.18;5.40;;;4.90;90.70;;;;;;5020182;28;20033;-76
2022/01/07 08:16:19;;;;;;;13.18;3.72;;;4.90;90.60;;;;;;5023267;28;20061;-75
2022/01/07 08:18:49;;;;;;;10.98;3.53;;;4.90;90.60;;;;;;5022874;28;20111;-73
2022/01/07 08:21:15;;;;;;;18.20;4.03;;;4.80;90.60;;;;;;5015729;28;20072;-73
2022/01/07 08:23:42;;;;;;;9.35;3.92;;;4.90;90.60;;;;;;5016053;28;20124;-74
2022/01/07 08:26:11;;;;;;;9.40;3.72;;;4.90;90.60;;;;;;5014811;28;20324;-75
2022/01/07 08:28:43;;;;;;;11.32;3.83;;;4.80;90.50;;;;;;5007781;28;20042;-74
2022/01/07 08:36:31;;;;;;;9.82;3.28;;;4.80;90.50;;;;;;5017527;28;20056;-79
2022/01/07 08:39:01;;;;;;;10.35;3.40;;;4.80;90.40;;;;;;5016658;28;20044;-79
2022/01/07 08:41:31;;;;;;;10.45;3.13;;;4.80;90.20;;;;;;5014120;28;20137;-76
2022/01/07 08:43:59;;;;;;;9.50;3.13;;;4.90;90.10;;;;;;5017204;28;20439;-73
2022/01/07 08:46:27;;;;;;;9.63;4.15;;;4.90;90.00;;;;;;5035719;28;20406;-75
2022/01/07 08:48:57;;;;;;;10.57;3.50;;;4.90;90.10;;;;;;5012864;28;20039;-74
2022/01/07 08:51:28;;;;;;;9.60;3.65;;;5.00;90.00;;;;;;5018177;28;20095;-74
2022/01/07 08:53:57;;;;;;;10.77;4.05;;;5.10;89.90;;;;;;5020676;28;20362;-76
2022/01/07 08:56:24;;;;;;;9.80;4.30;;;5.10;89.80;;;;;;5014811;28;20052;-75
2022/01/07 08:58:54;;;;;;;10.93;5.05;;;5.20;89.40;;;;;;5009439;28;20038;-74
2022/01/07 09:01:22;;;;;;;9.20;4.13;;;5.30;89.20;;;;;;5029136;28;20069;-79
2022/01/07 09:03:48;;;;;;;13.35;5.97;;;5.30;89.10;;;;;;5015408;28;20033;-77
2022/01/07 09:06:13;;;;;;;12.80;5.32;;;5.30;89.10;;;;;;5016651;28;20044;-76
2022/01/07 09:08:39;;;;;;;11.00;5.78;;;5.20;89.30;;;;;;5014931;28;20104;-76
2022/01/07 09:11:05;;;;;;;13.23;5.88;;;5.30;89.30;;;;;;5017747;28;20037;-76
2022/01/07 09:13:31;;;;;;;11.48;6.30;;;5.40;89.10;;;;;;5012218;28;20405;-77
2022/01/07 09:15:56;;;;;;;10.65;6.10;;;5.40;89.10;;;;;;5014872;28;20396;-76
2022/01/07 09:18:22;;;;;;;11.02;6.68;;;5.40;88.90;;;;;;5013303;28;20103;-76
2022/01/07 09:20:48;;;;;;;11.20;6.65;;;5.40;89.30;;;;;;5008110;28;20038;-76
2022/01/07 09:23:15;;;;;;;14.27;6.55;;;5.50;89.30;;;;;;5025914;28;20112;-77
2022/01/07 09:25:41;;;;;;;13.27;7.03;;;5.60;89.20;;;;;;5008833;28;20329;-77
2022/01/07 09:28:08;;;;;;;13.23;6.45;;;5.60;88.70;;;;;;5009973;28;20034;-77
2022/01/07 09:30:35;;;;;;;15.48;6.63;;;5.50;88.60;;;;;;5014701;28;20038;-77
2022/01/07 09:33:01;;;;;;;18.23;7.55;;;5.50;88.60;;;;;;5009994;28;20145;-76
2022/01/07 09:35:27;;;;;;;14.63;6.22;;;5.60;88.70;;;;;;5012587;28;20397;-75
2022/01/07 09:37:53;;;;;;;13.55;6.53;;;5.50;89.00;;;;;;5015003;28;20674;-75
2022/01/07 09:40:20;;;;;;;12.52;7.35;;;5.60;88.90;;;;;;5007108;28;20033;-77
2022/01/07 09:43:03;;;;;;;18.05;6.82;;;5.60;88.70;;;;;;5006205;28;20761;-77
2022/01/07 09:45:31;;;;;;;12.95;7.45;;;5.50;88.70;;;;;;5003023;28;20033;-77
2022/01/07 09:47:58;;;;;;;16.10;7.97;;;5.50;88.90;;;;;;5007320;28;20064;-80
2022/01/07 09:50:26;;;;;;;17.40;8.05;;;5.50;89.10;;;;;;5006988;28;20697;-78
2022/01/07 09:52:52;;;;;;;15.27;8.07;;;5.50;89.20;;;;;;5009430;28;20029;-78
2022/01/07 09:55:19;;;;;;;14.60;7.13;;;5.60;89.30;;;;;;5010971;28;20073;-76
2022/01/07 09:57:45;;;;;;;19.13;7.57;;;5.60;89.30;;;;;;5013352;28;20506;-76
2022/01/07 10:00:13;;;;;;;15.98;7.28;;;5.70;89.00;;;;;;5012449;28;20037;-78
2022/01/07 10:02:57;;;;;;;14.88;7.78;;;5.70;88.90;;;;;;5010166;28;20642;-77
2022/01/07 10:05:23;;;;;;;14.98;7.25;;;5.70;89.00;;;;;;5014443;28;20429;-76
2022/01/07 10:07:49;;;;;;;15.57;6.45;;;5.80;88.80;;;;;;5010429;28;20465;-76
2022/01/07 10:10:18;;;;;;;12.60;5.43;;;5.80;88.60;;;;;;5010615;28;20041;-75
2022/01/07 10:13:02;;;;;;;13.48;5.18;;;5.80;88.50;;;;;;5009723;28;20155;-76
2022/01/07 10:15:33;;;;;;;14.48;4.78;;;5.80;88.40;;;;;;5012152;28;20051;-76
2022/01/07 10:18:02;;;;;;;11.13;4.10;;;5.80;88.00;;;;;;5012188;28;20038;-74
2022/01/07 10:20:38;;;;;;;13.40;4.05;;;5.90;87.80;;;;;;5012308;28;20567;-80
2022/01/07 10:23:06;;;;;;;11.90;4.30;;;5.90;87.50;;;;;;5012429;28;20535;-76
2022/01/07 10:25:37;;;;;;;12.35;3.78;;;6.00;87.50;;;;;;5013935;28;20044;-75
2022/01/07 10:28:09;;;;;;;12.07;4.40;;;6.10;87.50;;;;;;5014782;28;20041;-82
2022/01/07 10:30:36;;;;;;;10.65;4.07;;;6.10;87.40;;;;;;5014749;28;20064;-79
2022/01/07 10:33:27;;;;;;;15.88;4.65;;;6.20;87.20;;;;;;5012821;28;20046;-76
2022/01/07 10:35:56;;;;;;;13.73;4.78;;;6.30;87.30;;;;;;5002000;28;20057;-78
2022/01/07 10:38:25;;;;;;;9.43;4.90;;;6.40;87.00;;;;;;5006419;28;20037;-77
2022/01/07 10:40:53;;;;;;;13.05;4.53;;;6.50;86.90;;;;;;5011189;28;20573;-77
2022/01/07 10:43:30;;;;;;;13.07;5.50;;;6.50;86.60;;;;;;5006447;28;20050;-77
2022/01/07 10:45:58;;;;;;;13.63;5.63;;;6.50;86.40;;;;;;5011560;28;20603;-79
2022/01/07 10:48:53;;;;;;;13.20;5.30;;;6.50;86.30;;;;;;5009075;28;21304;-79
2022/01/07 10:51:23;;;;;;;14.82;4.93;;;6.60;86.20;;;;;;5013693;28;20030;-74
2022/01/07 10:53:52;;;;;;;17.23;7.72;;;6.50;86.40;;;;;;5020149;28;20040;-73
2022/01/07 10:56:22;;;;;;;19.00;7.50;;;6.50;86.50;;;;;;5014456;28;20068;-74
2022/01/07 10:58:56;;;;;;;19.63;8.52;;;6.50;86.70;;;;;;5011147;28;20033;-76
2022/01/07 11:01:26;;;;;;;11.93;6.22;;;6.50;86.60;;;;;;5012803;28;20393;-75
2022/01/07 11:03:55;;;;;;;16.60;6.35;;;6.50;86.60;;;;;;5010409;28;20580;-75
2022/01/07 11:06:22;;;;;;;12.40;5.70;;;6.50;86.80;;;;;;5025034;28;20315;-76
2022/01/07 11:08:50;;;;;;;14.68;5.45;;;6.50;86.70;;;;;;5013289;28;20097;-79
2022/01/07 11:11:17;;;;;;;14.10;6.25;;;6.50;86.70;;;;;;5010746;28;20038;-79
2022/01/07 11:13:43;;;;;;;13.07;5.75;;;6.50;86.60;;;;;;5014814;28;20038;-75
2022/01/07 11:16:10;;;;;;;11.38;4.60;;;6.50;86.70;;;;;;5008621;28;20056;-81
2022/01/07 11:18:41;;;;;;;11.85;5.00;;;6.50;86.60;;;;;;5010736;28;20128;-80
2022/01/07 11:21:09;;;;;;;10.88;4.53;;;6.60;86.40;;;;;;5011236;28;20045;-74
2022/01/07 11:23:37;;;;;;;9.13;3.90;;;6.60;86.40;;;;;;5008822;28;20492;-81
2022/01/07 11:26:09;;;;;;;13.18;4.22;;;6.60;86.30;;;;;;5012408;28;20041;-83
2022/01/07 11:28:36;;;;;;;11.52;4.32;;;6.60;85.90;;;;;;5013619;28;20050;-76
2022/01/07 11:31:13;;;;;;;10.80;4.38;;;6.60;85.90;;;;;;5011458;28;20052;-76
2022/01/07 11:33:40;;;;;;;12.20;4.35;;;6.60;85.70;;;;;;5014837;28;20053;-74
2022/01/07 11:36:10;;;;;;;10.10;3.92;;;6.60;85.80;;;;;;5013840;28;20493;-76
2022/01/07 11:38:43;;;;;;;9.63;3.55;;;6.70;85.60;;;;;;5008208;28;20037;-74
2022/01/07 11:41:12;;;;;;;6.90;3.35;;;6.60;85.60;;;;;;5008265;28;20085;-80
2022/01/07 11:43:40;;;;;;;12.10;3.15;;;6.80;85.30;;;;;;5012762;28;20065;-74
2022/01/07 11:46:26;;;;;;;8.40;3.00;;;6.80;84.90;;;;;;5022296;28;21725;-78
2022/01/07 11:48:54;;;;;;;11.85;3.55;;;6.80;84.70;;;;;;5010624;28;20037;-76
2022/01/07 11:51:20;;;;;;;11.02;2.97;;;6.90;84.50;;;;;;5011967;28;20500;-77
2022/01/07 11:53:49;;;;;;;6.25;2.90;;;6.90;84.40;;;;;;5004648;28;20095;-74
2022/01/07 11:56:24;;;;;;;14.50;3.42;;;6.90;84.30;;;;;;5012420;28;20045;-74
2022/01/07 11:58:55;;;;;;;11.65;3.33;;;7.00;84.10;;;;;;5013318;28;20030;-77
2022/01/07 12:01:31;;;;;;;14.40;3.35;;;6.90;83.70;;;;;;5014351;28;20387;-76
2022/01/07 12:04:03;;;;;;;13.15;4.60;;;7.00;83.60;;;;;;5011936;28;20122;-74
2022/01/07 12:06:30;;;;;;;17.77;5.13;;;7.00;83.10;;;;;;5013207;28;20033;-74
2022/01/07 12:09:06;;;;;;;7.90;3.40;;;7.10;83.30;;;;;;5017643;28;20560;-77
2022/01/07 12:11:33;;;;;;;9.32;3.47;;;7.10;83.10;;;;;;5012410;28;20068;-74
2022/01/07 12:14:00;;;;;;;8.15;2.88;;;7.00;82.90;;;;;;5009525;28;20042;-74
2022/01/07 12:16:31;;;;;;;9.43;3.35;;;7.10;82.80;;;;;;5001231;28;20049;-74
2022/01/07 12:19:12;;;;;;;9.10;2.83;;;7.20;82.20;;;;;;5007112;28;20099;-76
2022/01/07 12:21:41;;;;;;;8.45;3.03;;;7.10;81.90;;;;;;5011017;28;20053;-79
2022/01/07 12:24:12;;;;;;;7.13;3.10;;;7.10;82.20;;;;;;5011260;28;20029;-80
2022/01/07 12:26:39;;;;;;;9.70;3.22;;;7.10;82.50;;;;;;5009235;28;20048;-78
2022/01/07 12:29:05;;;;;;;8.43;3.47;;;7.00;82.60;;;;;;5016446;28;20036;-82
2022/01/07 12:31:31;;;;;;;13.40;3.10;;;7.10;82.50;;;;;;5016223;28;20054;-75
2022/01/07 12:33:59;;;;;;;7.60;2.63;;;7.00;82.40;;;;;;5015533;28;20045;-75
2022/01/07 12:36:29;;;;;;;8.77;3.25;;;7.00;82.30;;;;;;5014904;28;20123;-75
2022/01/07 12:39:13;;;;;;;7.60;3.75;;;7.00;82.00;;;;;;5022634;28;20045;-76
2022/01/07 12:41:39;;;;;;;8.40;3.10;;;7.00;82.40;;;;;;5010345;28;20029;-82
2022/01/07 12:44:13;;;;;;;9.02;3.53;;;7.10;82.30;;;;;;5015247;28;20114;-78
2022/01/07 12:46:40;;;;;;;12.00;3.27;;;7.10;82.30;;;;;;5021659;28;20061;-75
2022/01/07 12:49:07;;;;;;;9.70;3.58;;;7.10;82.10;;;;;;5014418;28;20033;-76
2022/01/07 12:51:35;;;;;;;9.05;3.55;;;7.10;82.00;;;;;;5016369;28;20033;-75
2022/01/07 12:54:06;;;;;;;8.20;2.67;;;7.10;82.20;;;;;;5021282;28;20065;-76
2022/01/07 12:56:38;;;;;;;10.27;3.00;;;7.20;81.80;;;;;;5016439;28;20033;-77
2022/01/07 12:59:10;;;;;;;9.60;2.78;;;7.20;81.50;;;;;;5020721;28;20144;-78